Main page
METAR-TAF:

METAR-TAF

Airports :

Piešťany Airport

Piešťany, Slovakia

latitude: 48-37-30N, longitude: 017-49-43E, elevation: 163 m

Current weather observation

The report was made 36 minutes ago, at 18:30 UTC
Wind 3 kt from the West/Northwest, varying between West/Southwest and North/Northwest
Temperature 11°C
Humidity 87%
Pressure 1027 hPa
Visibility: 6000 m
Scattered clouds at a height of 1000 ft
Broken clouds at a height of 2500 ft

METAR: LZPP 131830Z 29003KT 250V330 6000 SCT010 BKN025 11/09 Q1027

Time: 20:06 (19:06 UTC)

Forecast

The report was made 2 hours and 6 minutes ago, at 17:00 UTC
Forecast valid from 13 at 18 UTC to 14 at 03 UTC
Wind 4 kt from the Northwest
Visibility 10 km or more
Overcast at a height of 3200 ft
Becoming
from 13 at 23 UTC to 14 at 01 UTC
Wind 7 kt from the North
Visibility 10 km or more
no clouds below 1500 m and no cumulonimbus

TAF: LZPP 131700Z 1318/1403 32004KT 9999 OVC032 BECMG 1323/1401 35007KT CAVOK

Weather observations and forecasts of more than 4000 airports (METAR and TAF reports).

The available stations are represented by yellow and red dots on the map.

Hover mouse over dot to see the name of the station.

Then click to see weather observations and forecasts.

To change the map : click on the green buttons with a black cross to zoom in, on the green button with a dash to zoom out, or on the green arrows for adjacent maps.


METAR-TAF: